sensor_id;sensor_type;location;lat;lon;timestamp;P1;durP1;ratioP1;P2;durP2;ratioP2
67696;SDS011;54486;51.442;6.778;2023-06-04T00:00:36;7.32;;;2.08;;
67696;SDS011;54486;51.442;6.778;2023-06-04T00:03:03;6.35;;;2.10;;
67696;SDS011;54486;51.442;6.778;2023-06-04T00:05:31;8.47;;;3.00;;
67696;SDS011;54486;51.442;6.778;2023-06-04T00:07:59;10.32;;;3.78;;
67696;SDS011;54486;51.442;6.778;2023-06-04T00:10:26;8.93;;;3.17;;
67696;SDS011;54486;51.442;6.778;2023-06-04T00:12:53;7.65;;;2.60;;
67696;SDS011;54486;51.442;6.778;2023-06-04T00:15:20;6.40;;;2.00;;
67696;SDS011;54486;51.442;6.778;2023-06-04T00:17:47;6.10;;;1.67;;
67696;SDS011;54486;51.442;6.778;2023-06-04T00:20:15;5.25;;;1.80;;
67696;SDS011;54486;51.442;6.778;2023-06-04T00:22:43;6.15;;;1.88;;
67696;SDS011;54486;51.442;6.778;2023-06-04T00:25:11;7.18;;;2.08;;
67696;SDS011;54486;51.442;6.778;2023-06-04T00:27:38;6.90;;;1.90;;
67696;SDS011;54486;51.442;6.778;2023-06-04T00:30:05;6.32;;;2.00;;
67696;SDS011;54486;51.442;6.778;2023-06-04T00:32:34;7.88;;;2.20;;
67696;SDS011;54486;51.442;6.778;2023-06-04T00:35:01;7.80;;;2.65;;
67696;SDS011;54486;51.442;6.778;2023-06-04T00:37:31;6.45;;;1.77;;
67696;SDS011;54486;51.442;6.778;2023-06-04T00:39:58;5.70;;;1.70;;
67696;SDS011;54486;51.442;6.778;2023-06-04T00:42:26;6.85;;;1.63;;
67696;SDS011;54486;51.442;6.778;2023-06-04T00:44:54;6.73;;;2.13;;
67696;SDS011;54486;51.442;6.778;2023-06-04T00:47:26;7.53;;;1.75;;
67696;SDS011;54486;51.442;6.778;2023-06-04T00:49:57;6.18;;;1.77;;
67696;SDS011;54486;51.442;6.778;2023-06-04T00:52:25;6.05;;;1.80;;
67696;SDS011;54486;51.442;6.778;2023-06-04T00:54:53;8.02;;;1.98;;
67696;SDS011;54486;51.442;6.778;2023-06-04T00:57:22;5.30;;;1.70;;
67696;SDS011;54486;51.442;6.778;2023-06-04T00:59:49;5.27;;;1.70;;
67696;SDS011;54486;51.442;6.778;2023-06-04T01:02:18;5.30;;;1.70;;
67696;SDS011;54486;51.442;6.778;2023-06-04T01:07:20;6.70;;;1.90;;
67696;SDS011;54486;51.442;6.778;2023-06-04T01:09:49;6.22;;;2.13;;
67696;SDS011;54486;51.442;6.778;2023-06-04T01:12:17;6.93;;;2.00;;
67696;SDS011;54486;51.442;6.778;2023-06-04T01:14:44;6.00;;;1.73;;
67696;SDS011;54486;51.442;6.778;2023-06-04T01:17:15;6.13;;;1.75;;
67696;SDS011;54486;51.442;6.778;2023-06-04T01:25:15;6.17;;;1.87;;
67696;SDS011;54486;51.442;6.778;2023-06-04T01:27:57;6.15;;;1.90;;
67696;SDS011;54486;51.442;6.778;2023-06-04T01:30:32;5.93;;;1.50;;
67696;SDS011;54486;51.442;6.778;2023-06-04T01:33:01;6.03;;;1.70;;
67696;SDS011;54486;51.442;6.778;2023-06-04T01:35:29;5.07;;;1.58;;
67696;SDS011;54486;51.442;6.778;2023-06-04T01:37:59;5.50;;;1.63;;
67696;SDS011;54486;51.442;6.778;2023-06-04T01:40:27;5.57;;;1.88;;
67696;SDS011;54486;51.442;6.778;2023-06-04T01:42:54;5.40;;;1.57;;
67696;SDS011;54486;51.442;6.778;2023-06-04T01:45:22;6.22;;;1.77;;
67696;SDS011;54486;51.442;6.778;2023-06-04T01:47:50;6.40;;;1.80;;
67696;SDS011;54486;51.442;6.778;2023-06-04T01:50:18;5.68;;;1.50;;
67696;SDS011;54486;51.442;6.778;2023-06-04T01:52:45;5.68;;;1.50;;
67696;SDS011;54486;51.442;6.778;2023-06-04T01:55:14;5.27;;;1.40;;
67696;SDS011;54486;51.442;6.778;2023-06-04T01:57:43;5.50;;;1.60;;
67696;SDS011;54486;51.442;6.778;2023-06-04T02:00:12;6.47;;;1.77;;
67696;SDS011;54486;51.442;6.778;2023-06-04T02:02:41;6.00;;;1.60;;
67696;SDS011;54486;51.442;6.778;2023-06-04T02:05:09;5.80;;;1.50;;
67696;SDS011;54486;51.442;6.778;2023-06-04T02:07:38;6.72;;;1.63;;
67696;SDS011;54486;51.442;6.778;2023-06-04T02:12:38;5.88;;;1.88;;
67696;SDS011;54486;51.442;6.778;2023-06-04T02:15:09;7.30;;;2.03;;
67696;SDS011;54486;51.442;6.778;2023-06-04T02:17:36;5.68;;;2.08;;
67696;SDS011;54486;51.442;6.778;2023-06-04T02:20:07;5.70;;;1.70;;
67696;SDS011;54486;51.442;6.778;2023-06-04T02:22:36;4.90;;;1.53;;
67696;SDS011;54486;51.442;6.778;2023-06-04T02:25:04;5.80;;;1.50;;
67696;SDS011;54486;51.442;6.778;2023-06-04T02:27:33;5.82;;;1.50;;
67696;SDS011;54486;51.442;6.778;2023-06-04T02:30:00;6.68;;;1.70;;
67696;SDS011;54486;51.442;6.778;2023-06-04T02:32:28;5.17;;;1.53;;
67696;SDS011;54486;51.442;6.778;2023-06-04T02:34:56;6.40;;;1.95;;
67696;SDS011;54486;51.442;6.778;2023-06-04T02:37:23;5.03;;;1.43;;
67696;SDS011;54486;51.442;6.778;2023-06-04T02:39:50;5.90;;;1.65;;
67696;SDS011;54486;51.442;6.778;2023-06-04T02:42:18;7.97;;;1.60;;
67696;SDS011;54486;51.442;6.778;2023-06-04T02:44:45;5.70;;;1.50;;
67696;SDS011;54486;51.442;6.778;2023-06-04T02:47:12;4.60;;;1.23;;
67696;SDS011;54486;51.442;6.778;2023-06-04T02:49:39;5.85;;;1.85;;
67696;SDS011;54486;51.442;6.778;2023-06-04T02:52:07;4.97;;;1.60;;
67696;SDS011;54486;51.442;6.778;2023-06-04T02:54:34;6.30;;;1.40;;
67696;SDS011;54486;51.442;6.778;2023-06-04T02:57:02;6.55;;;1.60;;
67696;SDS011;54486;51.442;6.778;2023-06-04T02:59:29;5.78;;;1.55;;
67696;SDS011;54486;51.442;6.778;2023-06-04T03:01:57;5.70;;;1.48;;
67696;SDS011;54486;51.442;6.778;2023-06-04T03:04:25;6.33;;;1.80;;
67696;SDS011;54486;51.442;6.778;2023-06-04T03:06:53;5.63;;;1.50;;
67696;SDS011;54486;51.442;6.778;2023-06-04T03:09:24;5.93;;;1.55;;
67696;SDS011;54486;51.442;6.778;2023-06-04T03:11:51;4.72;;;1.40;;
67696;SDS011;54486;51.442;6.778;2023-06-04T03:14:21;6.15;;;1.90;;
67696;SDS011;54486;51.442;6.778;2023-06-04T03:16:50;6.37;;;1.90;;
67696;SDS011;54486;51.442;6.778;2023-06-04T03:19:18;5.15;;;1.50;;
67696;SDS011;54486;51.442;6.778;2023-06-04T03:21:45;6.03;;;1.60;;
67696;SDS011;54486;51.442;6.778;2023-06-04T03:24:14;5.82;;;1.50;;
67696;SDS011;54486;51.442;6.778;2023-06-04T03:26:42;5.70;;;1.60;;
67696;SDS011;54486;51.442;6.778;2023-06-04T03:29:09;5.28;;;1.52;;
67696;SDS011;54486;51.442;6.778;2023-06-04T03:31:37;5.30;;;1.35;;
67696;SDS011;54486;51.442;6.778;2023-06-04T03:34:08;6.37;;;1.67;;
67696;SDS011;54486;51.442;6.778;2023-06-04T03:36:35;6.20;;;2.00;;
67696;SDS011;54486;51.442;6.778;2023-06-04T03:39:04;5.20;;;1.40;;
67696;SDS011;54486;51.442;6.778;2023-06-04T03:41:32;5.53;;;1.60;;
67696;SDS011;54486;51.442;6.778;2023-06-04T03:43:59;7.55;;;1.60;;
67696;SDS011;54486;51.442;6.778;2023-06-04T03:46:27;5.35;;;1.67;;
67696;SDS011;54486;51.442;6.778;2023-06-04T03:48:58;6.13;;;2.03;;
67696;SDS011;54486;51.442;6.778;2023-06-04T03:51:25;7.47;;;1.77;;
67696;SDS011;54486;51.442;6.778;2023-06-04T03:53:54;5.40;;;1.75;;
67696;SDS011;54486;51.442;6.778;2023-06-04T03:56:23;8.00;;;2.10;;
67696;SDS011;54486;51.442;6.778;2023-06-04T03:58:50;6.88;;;1.73;;
67696;SDS011;54486;51.442;6.778;2023-06-04T04:01:17;5.70;;;1.80;;
67696;SDS011;54486;51.442;6.778;2023-06-04T04:03:44;5.90;;;1.75;;
67696;SDS011;54486;51.442;6.778;2023-06-04T04:06:15;5.17;;;1.70;;
67696;SDS011;54486;51.442;6.778;2023-06-04T04:08:44;5.97;;;1.77;;
67696;SDS011;54486;51.442;6.778;2023-06-04T04:11:12;6.72;;;2.00;;
67696;SDS011;54486;51.442;6.778;2023-06-04T04:13:40;5.90;;;1.85;;
67696;SDS011;54486;51.442;6.778;2023-06-04T04:16:08;6.17;;;2.03;;
67696;SDS011;54486;51.442;6.778;2023-06-04T04:18:37;6.80;;;1.88;;
67696;SDS011;54486;51.442;6.778;2023-06-04T04:21:04;5.85;;;1.85;;
67696;SDS011;54486;51.442;6.778;2023-06-04T04:23:33;6.07;;;2.00;;
67696;SDS011;54486;51.442;6.778;2023-06-04T04:25:59;5.93;;;1.67;;
67696;SDS011;54486;51.442;6.778;2023-06-04T04:28:28;6.50;;;2.10;;
67696;SDS011;54486;51.442;6.778;2023-06-04T04:30:55;6.20;;;2.15;;
67696;SDS011;54486;51.442;6.778;2023-06-04T04:33:29;7.20;;;2.07;;
67696;SDS011;54486;51.442;6.778;2023-06-04T04:35:59;6.57;;;2.22;;
67696;SDS011;54486;51.442;6.778;2023-06-04T04:38:29;6.40;;;1.90;;
67696;SDS011;54486;51.442;6.778;2023-06-04T04:40:57;6.55;;;2.20;;
67696;SDS011;54486;51.442;6.778;2023-06-04T04:43:31;6.17;;;2.07;;
67696;SDS011;54486;51.442;6.778;2023-06-04T04:46:00;6.47;;;2.10;;
67696;SDS011;54486;51.442;6.778;2023-06-04T04:48:27;6.53;;;2.10;;
67696;SDS011;54486;51.442;6.778;2023-06-04T04:50:54;6.05;;;1.88;;
67696;SDS011;54486;51.442;6.778;2023-06-04T04:53:23;6.75;;;2.00;;
67696;SDS011;54486;51.442;6.778;2023-06-04T04:55:50;5.82;;;2.00;;
67696;SDS011;54486;51.442;6.778;2023-06-04T04:58:18;7.18;;;2.30;;
67696;SDS011;54486;51.442;6.778;2023-06-04T05:00:46;6.10;;;1.90;;
67696;SDS011;54486;51.442;6.778;2023-06-04T05:03:15;6.40;;;1.73;;
67696;SDS011;54486;51.442;6.778;2023-06-04T05:05:44;7.28;;;2.10;;
67696;SDS011;54486;51.442;6.778;2023-06-04T05:08:12;6.47;;;2.13;;
67696;SDS011;54486;51.442;6.778;2023-06-04T05:10:39;6.97;;;1.93;;
67696;SDS011;54486;51.442;6.778;2023-06-04T05:13:06;6.13;;;1.60;;
67696;SDS011;54486;51.442;6.778;2023-06-04T05:15:34;6.72;;;1.80;;
67696;SDS011;54486;51.442;6.778;2023-06-04T05:18:02;6.63;;;1.73;;
67696;SDS011;54486;51.442;6.778;2023-06-04T05:20:31;6.57;;;1.87;;
67696;SDS011;54486;51.442;6.778;2023-06-04T05:22:58;6.87;;;1.93;;
67696;SDS011;54486;51.442;6.778;2023-06-04T05:25:25;6.20;;;1.80;;
67696;SDS011;54486;51.442;6.778;2023-06-04T05:27:58;6.63;;;1.90;;
67696;SDS011;54486;51.442;6.778;2023-06-04T05:30:25;6.78;;;1.70;;
67696;SDS011;54486;51.442;6.778;2023-06-04T05:32:53;6.85;;;1.85;;
67696;SDS011;54486;51.442;6.778;2023-06-04T05:35:21;6.30;;;2.17;;
67696;SDS011;54486;51.442;6.778;2023-06-04T05:37:48;6.18;;;2.00;;
67696;SDS011;54486;51.442;6.778;2023-06-04T05:40:20;6.63;;;1.90;;
67696;SDS011;54486;51.442;6.778;2023-06-04T05:42:48;5.50;;;1.63;;
67696;SDS011;54486;51.442;6.778;2023-06-04T05:45:15;7.07;;;2.15;;
67696;SDS011;54486;51.442;6.778;2023-06-04T05:47:42;7.20;;;2.20;;
67696;SDS011;54486;51.442;6.778;2023-06-04T05:50:10;7.80;;;2.03;;
67696;SDS011;54486;51.442;6.778;2023-06-04T05:52:37;6.40;;;1.90;;
67696;SDS011;54486;51.442;6.778;2023-06-04T05:55:05;6.20;;;1.80;;
67696;SDS011;54486;51.442;6.778;2023-06-04T05:57:34;7.32;;;2.10;;
67696;SDS011;54486;51.442;6.778;2023-06-04T06:00:05;7.18;;;1.90;;
67696;SDS011;54486;51.442;6.778;2023-06-04T06:02:37;7.67;;;2.10;;
67696;SDS011;54486;51.442;6.778;2023-06-04T06:05:08;7.45;;;2.05;;
67696;SDS011;54486;51.442;6.778;2023-06-04T06:07:37;7.10;;;1.60;;
67696;SDS011;54486;51.442;6.778;2023-06-04T06:10:06;7.30;;;2.22;;
67696;SDS011;54486;51.442;6.778;2023-06-04T06:12:35;6.90;;;2.03;;
67696;SDS011;54486;51.442;6.778;2023-06-04T06:15:05;8.07;;;2.00;;
67696;SDS011;54486;51.442;6.778;2023-06-04T06:17:37;7.40;;;2.65;;
67696;SDS011;54486;51.442;6.778;2023-06-04T06:20:06;6.57;;;1.90;;
67696;SDS011;54486;51.442;6.778;2023-06-04T06:22:34;7.07;;;2.20;;
67696;SDS011;54486;51.442;6.778;2023-06-04T06:25:02;6.45;;;2.00;;
67696;SDS011;54486;51.442;6.778;2023-06-04T06:27:35;7.53;;;2.03;;
67696;SDS011;54486;51.442;6.778;2023-06-04T06:30:03;6.07;;;1.77;;
67696;SDS011;54486;51.442;6.778;2023-06-04T06:32:34;6.78;;;1.77;;
67696;SDS011;54486;51.442;6.778;2023-06-04T06:35:02;6.22;;;1.77;;
67696;SDS011;54486;51.442;6.778;2023-06-04T06:37:30;6.65;;;1.88;;
67696;SDS011;54486;51.442;6.778;2023-06-04T06:39:57;7.22;;;1.88;;
67696;SDS011;54486;51.442;6.778;2023-06-04T06:42:26;7.50;;;1.60;;
67696;SDS011;54486;51.442;6.778;2023-06-04T06:44:59;6.05;;;1.70;;
67696;SDS011;54486;51.442;6.778;2023-06-04T06:47:27;6.38;;;1.80;;
67696;SDS011;54486;51.442;6.778;2023-06-04T06:49:54;5.53;;;1.80;;
67696;SDS011;54486;51.442;6.778;2023-06-04T06:52:24;5.70;;;1.60;;
67696;SDS011;54486;51.442;6.778;2023-06-04T06:54:51;6.13;;;1.70;;
67696;SDS011;54486;51.442;6.778;2023-06-04T06:57:20;6.07;;;1.75;;
67696;SDS011;54486;51.442;6.778;2023-06-04T06:59:49;6.90;;;1.80;;
67696;SDS011;54486;51.442;6.778;2023-06-04T07:02:19;5.60;;;1.60;;
67696;SDS011;54486;51.442;6.778;2023-06-04T07:04:47;5.47;;;1.60;;
67696;SDS011;54486;51.442;6.778;2023-06-04T07:07:15;5.93;;;1.80;;
67696;SDS011;54486;51.442;6.778;2023-06-04T07:09:45;5.97;;;1.73;;
67696;SDS011;54486;51.442;6.778;2023-06-04T07:12:15;7.60;;;1.90;;
67696;SDS011;54486;51.442;6.778;2023-06-04T07:14:44;6.28;;;1.80;;
67696;SDS011;54486;51.442;6.778;2023-06-04T07:17:14;5.88;;;1.90;;
67696;SDS011;54486;51.442;6.778;2023-06-04T07:19:47;5.07;;;1.50;;
67696;SDS011;54486;51.442;6.778;2023-06-04T07:22:16;5.45;;;1.70;;
67696;SDS011;54486;51.442;6.778;2023-06-04T07:24:43;5.00;;;1.30;;
67696;SDS011;54486;51.442;6.778;2023-06-04T07:27:14;5.75;;;1.63;;
67696;SDS011;54486;51.442;6.778;2023-06-04T07:29:43;5.67;;;1.70;;
67696;SDS011;54486;51.442;6.778;2023-06-04T07:32:15;6.20;;;1.80;;
67696;SDS011;54486;51.442;6.778;2023-06-04T07:34:42;5.78;;;1.75;;
67696;SDS011;54486;51.442;6.778;2023-06-04T07:37:09;6.00;;;1.63;;
67696;SDS011;54486;51.442;6.778;2023-06-04T07:39:38;5.47;;;1.48;;
67696;SDS011;54486;51.442;6.778;2023-06-04T07:42:05;6.05;;;1.60;;
67696;SDS011;54486;51.442;6.778;2023-06-04T07:44:36;6.38;;;1.70;;
67696;SDS011;54486;51.442;6.778;2023-06-04T07:47:04;5.07;;;1.70;;
67696;SDS011;54486;51.442;6.778;2023-06-04T07:49:32;5.70;;;1.38;;
67696;SDS011;54486;51.442;6.778;2023-06-04T07:52:02;5.63;;;1.48;;
67696;SDS011;54486;51.442;6.778;2023-06-04T07:54:30;5.57;;;1.70;;
67696;SDS011;54486;51.442;6.778;2023-06-04T07:56:58;5.95;;;1.80;;
67696;SDS011;54486;51.442;6.778;2023-06-04T07:59:27;5.93;;;1.77;;
67696;SDS011;54486;51.442;6.778;2023-06-04T08:01:57;5.65;;;1.45;;
67696;SDS011;54486;51.442;6.778;2023-06-04T08:04:25;5.72;;;1.48;;
67696;SDS011;54486;51.442;6.778;2023-06-04T08:06:52;5.55;;;1.63;;
67696;SDS011;54486;51.442;6.778;2023-06-04T08:09:20;7.03;;;1.73;;
67696;SDS011;54486;51.442;6.778;2023-06-04T08:11:48;4.55;;;1.45;;
67696;SDS011;54486;51.442;6.778;2023-06-04T08:14:15;7.50;;;1.80;;
67696;SDS011;54486;51.442;6.778;2023-06-04T08:16:43;5.82;;;1.60;;
67696;SDS011;54486;51.442;6.778;2023-06-04T08:19:11;5.72;;;1.50;;
67696;SDS011;54486;51.442;6.778;2023-06-04T08:21:43;7.30;;;1.90;;
67696;SDS011;54486;51.442;6.778;2023-06-04T08:24:11;5.70;;;1.70;;
67696;SDS011;54486;51.442;6.778;2023-06-04T08:26:39;6.00;;;1.77;;
67696;SDS011;54486;51.442;6.778;2023-06-04T08:29:07;6.38;;;1.92;;
67696;SDS011;54486;51.442;6.778;2023-06-04T08:31:35;6.63;;;1.83;;
67696;SDS011;54486;51.442;6.778;2023-06-04T08:34:02;6.15;;;1.55;;
67696;SDS011;54486;51.442;6.778;2023-06-04T08:36:31;6.95;;;1.90;;
67696;SDS011;54486;51.442;6.778;2023-06-04T08:39:02;6.43;;;1.77;;
67696;SDS011;54486;51.442;6.778;2023-06-04T08:41:32;6.38;;;1.65;;
67696;SDS011;54486;51.442;6.778;2023-06-04T08:44:05;6.68;;;1.98;;
67696;SDS011;54486;51.442;6.778;2023-06-04T08:46:34;6.57;;;2.00;;
67696;SDS011;54486;51.442;6.778;2023-06-04T08:49:08;6.97;;;2.00;;
67696;SDS011;54486;51.442;6.778;2023-06-04T08:51:36;6.82;;;2.08;;
67696;SDS011;54486;51.442;6.778;2023-06-04T08:54:08;7.13;;;1.92;;
67696;SDS011;54486;51.442;6.778;2023-06-04T08:56:35;5.72;;;1.60;;
67696;SDS011;54486;51.442;6.778;2023-06-04T08:59:06;6.28;;;1.73;;
67696;SDS011;54486;51.442;6.778;2023-06-04T09:01:34;5.45;;;1.35;;
67696;SDS011;54486;51.442;6.778;2023-06-04T09:04:05;6.63;;;1.60;;
67696;SDS011;54486;51.442;6.778;2023-06-04T09:06:38;7.60;;;1.65;;
67696;SDS011;54486;51.442;6.778;2023-06-04T09:09:08;6.05;;;1.58;;
67696;SDS011;54486;51.442;6.778;2023-06-04T09:11:59;5.80;;;1.70;;
67696;SDS011;54486;51.442;6.778;2023-06-04T09:14:28;6.15;;;1.30;;
67696;SDS011;54486;51.442;6.778;2023-06-04T09:16:55;6.68;;;1.48;;
67696;SDS011;54486;51.442;6.778;2023-06-04T09:19:26;6.70;;;1.60;;
67696;SDS011;54486;51.442;6.778;2023-06-04T09:21:58;6.28;;;1.45;;
67696;SDS011;54486;51.442;6.778;2023-06-04T09:24:39;6.83;;;1.60;;
67696;SDS011;54486;51.442;6.778;2023-06-04T09:27:12;6.03;;;1.55;;
67696;SDS011;54486;51.442;6.778;2023-06-04T09:29:50;5.10;;;1.40;;
67696;SDS011;54486;51.442;6.778;2023-06-04T09:32:26;4.68;;;1.20;;
67696;SDS011;54486;51.442;6.778;2023-06-04T09:35:08;4.93;;;1.43;;
67696;SDS011;54486;51.442;6.778;2023-06-04T09:37:43;5.20;;;1.50;;
67696;SDS011;54486;51.442;6.778;2023-06-04T09:40:38;5.13;;;1.40;;
67696;SDS011;54486;51.442;6.778;2023-06-04T09:43:06;6.45;;;1.33;;
67696;SDS011;54486;51.442;6.778;2023-06-04T09:45:35;5.65;;;1.40;;
67696;SDS011;54486;51.442;6.778;2023-06-04T09:48:03;5.67;;;1.60;;
67696;SDS011;54486;51.442;6.778;2023-06-04T09:50:36;4.93;;;1.30;;
67696;SDS011;54486;51.442;6.778;2023-06-04T09:53:12;6.65;;;1.20;;
67696;SDS011;54486;51.442;6.778;2023-06-04T09:55:58;6.07;;;1.60;;
67696;SDS011;54486;51.442;6.778;2023-06-04T09:58:27;5.88;;;1.60;;
67696;SDS011;54486;51.442;6.778;2023-06-04T10:00:55;6.53;;;1.80;;
67696;SDS011;54486;51.442;6.778;2023-06-04T10:03:26;5.80;;;1.60;;
67696;SDS011;54486;51.442;6.778;2023-06-04T10:06:05;5.78;;;1.40;;
67696;SDS011;54486;51.442;6.778;2023-06-04T10:08:34;6.50;;;1.67;;
67696;SDS011;54486;51.442;6.778;2023-06-04T10:11:05;5.50;;;1.70;;
67696;SDS011;54486;51.442;6.778;2023-06-04T10:13:41;5.25;;;1.50;;
67696;SDS011;54486;51.442;6.778;2023-06-04T10:16:16;6.38;;;1.63;;
67696;SDS011;54486;51.442;6.778;2023-06-04T10:18:59;6.07;;;1.70;;
67696;SDS011;54486;51.442;6.778;2023-06-04T10:21:28;6.20;;;1.80;;
67696;SDS011;54486;51.442;6.778;2023-06-04T10:24:01;5.90;;;1.95;;
67696;SDS011;54486;51.442;6.778;2023-06-04T10:26:29;6.45;;;1.70;;
67696;SDS011;54486;51.442;6.778;2023-06-04T10:29:00;5.32;;;1.42;;
67696;SDS011;54486;51.442;6.778;2023-06-04T10:31:29;5.45;;;1.50;;
67696;SDS011;54486;51.442;6.778;2023-06-04T10:33:56;6.63;;;1.70;;
67696;SDS011;54486;51.442;6.778;2023-06-04T10:36:24;5.20;;;1.60;;
67696;SDS011;54486;51.442;6.778;2023-06-04T10:38:52;5.88;;;1.65;;
67696;SDS011;54486;51.442;6.778;2023-06-04T10:41:22;6.10;;;1.80;;
67696;SDS011;54486;51.442;6.778;2023-06-04T10:43:50;5.70;;;1.52;;
67696;SDS011;54486;51.442;6.778;2023-06-04T10:46:19;6.40;;;1.90;;
67696;SDS011;54486;51.442;6.778;2023-06-04T10:48:50;6.25;;;1.90;;
67696;SDS011;54486;51.442;6.778;2023-06-04T10:51:31;6.65;;;1.70;;
67696;SDS011;54486;51.442;6.778;2023-06-04T10:54:02;5.70;;;1.87;;
67696;SDS011;54486;51.442;6.778;2023-06-04T10:56:30;5.68;;;1.67;;
67696;SDS011;54486;51.442;6.778;2023-06-04T10:59:12;5.68;;;1.50;;
67696;SDS011;54486;51.442;6.778;2023-06-04T11:01:41;5.05;;;1.70;;
67696;SDS011;54486;51.442;6.778;2023-06-04T11:04:24;5.90;;;1.70;;
67696;SDS011;54486;51.442;6.778;2023-06-04T11:07:05;5.87;;;2.00;;
67696;SDS011;54486;51.442;6.778;2023-06-04T11:09:36;6.50;;;1.73;;
67696;SDS011;54486;51.442;6.778;2023-06-04T11:12:05;6.70;;;1.73;;
67696;SDS011;54486;51.442;6.778;2023-06-04T11:14:34;7.60;;;2.03;;
67696;SDS011;54486;51.442;6.778;2023-06-04T11:17:11;5.60;;;1.52;;
67696;SDS011;54486;51.442;6.778;2023-06-04T11:19:38;5.70;;;1.70;;
67696;SDS011;54486;51.442;6.778;2023-06-04T11:22:07;6.80;;;1.90;;
67696;SDS011;54486;51.442;6.778;2023-06-04T11:24:40;7.37;;;2.17;;
67696;SDS011;54486;51.442;6.778;2023-06-04T11:27:08;6.38;;;2.03;;
67696;SDS011;54486;51.442;6.778;2023-06-04T11:29:50;6.53;;;2.00;;
67696;SDS011;54486;51.442;6.778;2023-06-04T11:32:23;6.80;;;1.92;;
67696;SDS011;54486;51.442;6.778;2023-06-04T11:35:01;5.70;;;1.98;;
67696;SDS011;54486;51.442;6.778;2023-06-04T11:37:35;5.97;;;1.75;;
67696;SDS011;54486;51.442;6.778;2023-06-04T11:40:14;6.05;;;1.77;;
67696;SDS011;54486;51.442;6.778;2023-06-04T11:42:48;6.70;;;2.13;;
67696;SDS011;54486;51.442;6.778;2023-06-04T11:45:17;6.75;;;1.92;;
67696;SDS011;54486;51.442;6.778;2023-06-04T11:50:18;6.00;;;1.90;;
67696;SDS011;54486;51.442;6.778;2023-06-04T11:52:48;8.15;;;2.17;;
67696;SDS011;54486;51.442;6.778;2023-06-04T11:55:15;7.05;;;2.22;;
67696;SDS011;54486;51.442;6.778;2023-06-04T11:57:50;6.57;;;1.90;;
67696;SDS011;54486;51.442;6.778;2023-06-04T12:00:20;5.90;;;1.75;;
67696;SDS011;54486;51.442;6.778;2023-06-04T12:02:52;6.65;;;1.90;;
67696;SDS011;54486;51.442;6.778;2023-06-04T12:05:30;6.10;;;2.03;;
67696;SDS011;54486;51.442;6.778;2023-06-04T12:08:09;8.75;;;1.88;;
67696;SDS011;54486;51.442;6.778;2023-06-04T12:10:40;5.82;;;1.80;;
67696;SDS011;54486;51.442;6.778;2023-06-04T12:13:09;6.32;;;1.60;;
67696;SDS011;54486;51.442;6.778;2023-06-04T12:15:38;6.20;;;1.80;;
67696;SDS011;54486;51.442;6.778;2023-06-04T12:18:05;6.47;;;1.83;;
67696;SDS011;54486;51.442;6.778;2023-06-04T12:20:39;6.20;;;1.83;;
67696;SDS011;54486;51.442;6.778;2023-06-04T12:23:09;7.00;;;1.80;;
67696;SDS011;54486;51.442;6.778;2023-06-04T12:25:49;6.05;;;1.75;;
67696;SDS011;54486;51.442;6.778;2023-06-04T12:28:18;5.78;;;1.73;;
67696;SDS011;54486;51.442;6.778;2023-06-04T12:30:46;5.50;;;1.80;;
67696;SDS011;54486;51.442;6.778;2023-06-04T12:33:16;6.63;;;1.77;;
67696;SDS011;54486;51.442;6.778;2023-06-04T12:35:44;7.72;;;2.20;;
67696;SDS011;54486;51.442;6.778;2023-06-04T12:38:12;6.83;;;1.73;;
67696;SDS011;54486;51.442;6.778;2023-06-04T12:40:39;6.30;;;1.90;;
67696;SDS011;54486;51.442;6.778;2023-06-04T12:43:06;6.38;;;1.85;;
67696;SDS011;54486;51.442;6.778;2023-06-04T12:45:33;5.63;;;1.83;;
67696;SDS011;54486;51.442;6.778;2023-06-04T12:48:00;6.53;;;2.05;;
67696;SDS011;54486;51.442;6.778;2023-06-04T12:50:30;6.13;;;1.70;;
67696;SDS011;54486;51.442;6.778;2023-06-04T12:52:57;6.07;;;1.87;;
67696;SDS011;54486;51.442;6.778;2023-06-04T12:55:25;6.10;;;1.73;;
67696;SDS011;54486;51.442;6.778;2023-06-04T12:57:54;5.88;;;1.80;;
67696;SDS011;54486;51.442;6.778;2023-06-04T13:00:26;6.40;;;1.60;;
67696;SDS011;54486;51.442;6.778;2023-06-04T13:02:57;6.55;;;1.90;;
67696;SDS011;54486;51.442;6.778;2023-06-04T13:05:25;6.65;;;1.95;;
67696;SDS011;54486;51.442;6.778;2023-06-04T13:07:52;6.35;;;2.20;;
67696;SDS011;54486;51.442;6.778;2023-06-04T13:10:19;6.00;;;1.90;;
67696;SDS011;54486;51.442;6.778;2023-06-04T13:12:47;6.90;;;1.92;;
67696;SDS011;54486;51.442;6.778;2023-06-04T13:15:16;6.47;;;2.20;;
67696;SDS011;54486;51.442;6.778;2023-06-04T13:17:44;6.10;;;1.90;;
67696;SDS011;54486;51.442;6.778;2023-06-04T13:20:12;6.20;;;2.03;;
67696;SDS011;54486;51.442;6.778;2023-06-04T13:22:40;6.50;;;2.00;;
67696;SDS011;54486;51.442;6.778;2023-06-04T13:25:10;5.97;;;1.90;;
67696;SDS011;54486;51.442;6.778;2023-06-04T13:27:37;6.35;;;2.10;;
67696;SDS011;54486;51.442;6.778;2023-06-04T13:30:06;5.70;;;1.90;;
67696;SDS011;54486;51.442;6.778;2023-06-04T13:32:36;6.25;;;2.00;;
67696;SDS011;54486;51.442;6.778;2023-06-04T13:35:03;6.00;;;1.83;;
67696;SDS011;54486;51.442;6.778;2023-06-04T13:37:31;5.63;;;1.70;;
67696;SDS011;54486;51.442;6.778;2023-06-04T13:39:58;6.40;;;1.90;;
67696;SDS011;54486;51.442;6.778;2023-06-04T13:42:27;6.65;;;1.70;;
67696;SDS011;54486;51.442;6.778;2023-06-04T13:44:55;5.83;;;1.90;;
67696;SDS011;54486;51.442;6.778;2023-06-04T13:47:22;6.38;;;1.95;;
67696;SDS011;54486;51.442;6.778;2023-06-04T13:49:50;7.10;;;2.20;;
67696;SDS011;54486;51.442;6.778;2023-06-04T13:52:21;6.95;;;2.03;;
67696;SDS011;54486;51.442;6.778;2023-06-04T13:54:51;6.15;;;1.83;;
67696;SDS011;54486;51.442;6.778;2023-06-04T13:57:19;6.28;;;2.08;;
67696;SDS011;54486;51.442;6.778;2023-06-04T13:59:46;6.20;;;1.75;;
67696;SDS011;54486;51.442;6.778;2023-06-04T14:02:15;6.13;;;1.80;;
67696;SDS011;54486;51.442;6.778;2023-06-04T14:04:42;7.57;;;1.80;;
67696;SDS011;54486;51.442;6.778;2023-06-04T14:07:09;7.00;;;2.03;;
67696;SDS011;54486;51.442;6.778;2023-06-04T14:09:37;7.07;;;1.98;;
67696;SDS011;54486;51.442;6.778;2023-06-04T14:12:05;6.40;;;2.00;;
67696;SDS011;54486;51.442;6.778;2023-06-04T14:14:32;6.25;;;1.92;;
67696;SDS011;54486;51.442;6.778;2023-06-04T14:17:03;7.03;;;1.83;;
67696;SDS011;54486;51.442;6.778;2023-06-04T14:19:33;5.93;;;1.77;;
67696;SDS011;54486;51.442;6.778;2023-06-04T14:22:04;6.38;;;1.92;;
67696;SDS011;54486;51.442;6.778;2023-06-04T14:24:31;7.07;;;1.80;;
67696;SDS011;54486;51.442;6.778;2023-06-04T14:26:58;6.10;;;2.00;;
67696;SDS011;54486;51.442;6.778;2023-06-04T14:29:26;5.57;;;1.63;;
67696;SDS011;54486;51.442;6.778;2023-06-04T14:31:54;5.60;;;1.70;;
67696;SDS011;54486;51.442;6.778;2023-06-04T14:34:23;5.80;;;1.80;;
67696;SDS011;54486;51.442;6.778;2023-06-04T14:36:50;6.32;;;1.90;;
67696;SDS011;54486;51.442;6.778;2023-06-04T14:39:17;6.20;;;1.77;;
67696;SDS011;54486;51.442;6.778;2023-06-04T14:41:48;5.88;;;1.45;;
67696;SDS011;54486;51.442;6.778;2023-06-04T14:44:17;6.28;;;1.77;;
67696;SDS011;54486;51.442;6.778;2023-06-04T14:46:45;6.45;;;1.98;;
67696;SDS011;54486;51.442;6.778;2023-06-04T14:49:13;5.63;;;1.80;;
67696;SDS011;54486;51.442;6.778;2023-06-04T14:51:40;6.07;;;1.60;;
67696;SDS011;54486;51.442;6.778;2023-06-04T14:54:07;6.60;;;1.75;;
67696;SDS011;54486;51.442;6.778;2023-06-04T14:56:35;5.88;;;1.60;;
67696;SDS011;54486;51.442;6.778;2023-06-04T14:59:02;6.22;;;1.60;;
67696;SDS011;54486;51.442;6.778;2023-06-04T15:01:35;5.90;;;1.77;;
67696;SDS011;54486;51.442;6.778;2023-06-04T15:04:04;6.47;;;1.52;;
67696;SDS011;54486;51.442;6.778;2023-06-04T15:06:31;5.82;;;1.70;;
67696;SDS011;54486;51.442;6.778;2023-06-04T15:08:59;6.57;;;1.70;;
67696;SDS011;54486;51.442;6.778;2023-06-04T15:11:26;5.72;;;1.83;;
67696;SDS011;54486;51.442;6.778;2023-06-04T15:13:54;5.78;;;1.58;;